Time;durP1;ratioP1;P1;durP2;ratioP2;P2;SDS_P1;SDS_P2;PMS_P1;PMS_P2;Temp;Humidity;BMP_temperature;BMP_pressure;BME280_temperature;BME280_humidity;BME280_pressure;Samples;Min_cycle;Max_cycle;Signal;HPM_P1;HPM_P2
2021/05/12 00:02:16;;;;;;;14.25;2.90;;;13.10;96.20;;;;;;5039882;28;20028;-72
2021/05/12 00:04:41;;;;;;;3.60;2.35;;;13.00;96.80;;;;;;5039766;28;20039;-72
2021/05/12 00:07:07;;;;;;;4.65;2.25;;;13.00;97.00;;;;;;5039659;28;20422;-72
2021/05/12 00:09:33;;;;;;;5.57;1.77;;;13.00;97.50;;;;;;5039404;28;20026;-72
2021/05/12 00:11:59;;;;;;;3.08;2.10;;;13.00;96.50;;;;;;5039386;28;20021;-72
2021/05/12 00:14:25;;;;;;;3.28;1.77;;;13.00;97.40;;;;;;5039534;28;20113;-72
2021/05/12 00:16:51;;;;;;;5.18;1.95;;;12.90;96.90;;;;;;5039244;28;20406;-72
2021/05/12 00:19:18;;;;;;;3.60;1.85;;;13.00;97.00;;;;;;5039209;28;20029;-72
2021/05/12 00:21:52;;;;;;;4.05;2.00;;;13.00;96.50;;;;;;5039168;28;20033;-72
2021/05/12 00:24:18;;;;;;;3.90;2.92;;;13.00;97.50;;;;;;5039321;28;20036;-72
2021/05/12 00:26:44;;;;;;;3.30;2.38;;;12.90;97.30;;;;;;5038709;28;20424;-72
2021/05/12 00:29:14;;;;;;;3.53;2.65;;;13.00;97.30;;;;;;5038610;28;20037;-72
2021/05/12 00:31:41;;;;;;;5.32;2.22;;;13.00;97.60;;;;;;5038992;28;20414;-72
2021/05/12 00:34:07;;;;;;;2.53;2.08;;;13.00;97.30;;;;;;5039199;28;20055;-72
2021/05/12 00:36:34;;;;;;;4.35;2.75;;;13.00;97.70;;;;;;5038849;28;20024;-72
2021/05/12 00:39:02;;;;;;;3.35;2.10;;;13.00;98.00;;;;;;5039178;28;20029;-72
2021/05/12 00:41:28;;;;;;;5.18;3.00;;;13.00;98.00;;;;;;5039098;28;20045;-72
2021/05/12 00:43:54;;;;;;;3.60;3.08;;;13.00;98.00;;;;;;5038721;28;20064;-72
2021/05/12 00:46:20;;;;;;;3.50;3.20;;;13.00;98.00;;;;;;5039021;28;20033;-72
2021/05/12 00:48:45;;;;;;;5.05;3.50;;;13.00;98.00;;;;;;5038894;28;20401;-72
2021/05/12 00:51:11;;;;;;;4.43;2.97;;;13.00;98.00;;;;;;5038955;28;20041;-72
2021/05/12 00:53:37;;;;;;;4.25;3.13;;;13.00;98.00;;;;;;5038557;28;20106;-72
2021/05/12 00:56:04;;;;;;;5.45;3.30;;;13.00;98.00;;;;;;5038479;28;20026;-72
2021/05/12 00:58:31;;;;;;;4.00;3.00;;;13.00;98.00;;;;;;5038490;28;20037;-72
2021/05/12 01:00:56;;;;;;;4.45;2.80;;;13.00;98.00;;;;;;5038724;28;20025;-72
2021/05/12 01:03:22;;;;;;;5.63;3.17;;;13.10;98.00;;;;;;5038439;28;20066;-72
2021/05/12 01:05:50;;;;;;;5.95;3.22;;;13.10;98.00;;;;;;5038551;28;20033;-72
2021/05/12 01:08:18;;;;;;;6.43;3.13;;;13.10;98.00;;;;;;5038505;28;20086;-72
2021/05/12 01:10:44;;;;;;;6.30;4.30;;;13.10;98.00;;;;;;5038563;28;20306;-72
2021/05/12 01:13:12;;;;;;;6.43;3.25;;;13.10;98.00;;;;;;5038246;28;20463;-72
2021/05/12 01:15:39;;;;;;;10.02;3.42;;;13.10;98.00;;;;;;5038394;28;20049;-72
2021/05/12 01:18:12;;;;;;;5.88;3.17;;;13.10;98.00;;;;;;5038119;28;20030;-72
2021/05/12 01:20:54;;;;;;;6.18;3.45;;;13.10;98.00;;;;;;5038307;28;20064;-72
2021/05/12 01:23:22;;;;;;;5.90;3.17;;;13.10;98.00;;;;;;5038052;28;20037;-72
2021/05/12 01:25:49;;;;;;;7.10;3.63;;;13.00;98.00;;;;;;5037919;28;20107;-72
2021/05/12 01:28:16;;;;;;;4.95;3.58;;;13.10;98.00;;;;;;5037807;28;20441;-72
2021/05/12 01:30:55;;;;;;;5.63;2.97;;;13.00;98.00;;;;;;5037830;28;20032;-72
2021/05/12 01:33:21;;;;;;;8.27;3.35;;;13.00;98.00;;;;;;5038137;28;20026;-72
2021/05/12 01:35:48;;;;;;;6.45;3.22;;;13.10;98.00;;;;;;5038017;28;20017;-72
2021/05/12 01:38:14;;;;;;;6.13;3.00;;;13.20;98.00;;;;;;5038222;28;20029;-72
2021/05/12 01:40:40;;;;;;;4.28;1.90;;;13.20;98.00;;;;;;5037597;28;20422;-72
2021/05/12 01:43:05;;;;;;;4.18;1.65;;;13.10;97.30;;;;;;5037972;28;20079;-72
2021/05/12 01:45:31;;;;;;;2.97;1.60;;;13.00;96.40;;;;;;5037790;28;20036;-72
2021/05/12 01:47:57;;;;;;;1.98;1.70;;;12.90;97.00;;;;;;5037821;28;20033;-72
2021/05/12 01:50:22;;;;;;;2.80;1.50;;;12.80;97.10;;;;;;5037448;28;20022;-72
2021/05/12 01:52:48;;;;;;;2.97;1.33;;;12.80;97.80;;;;;;5037877;28;20026;-72
2021/05/12 01:55:15;;;;;;;3.03;0.80;;;12.70;97.50;;;;;;5037513;28;20037;-72
2021/05/12 01:57:44;;;;;;;1.40;0.70;;;12.60;95.80;;;;;;5037696;28;20079;-72
2021/05/12 02:00:20;;;;;;;2.90;0.93;;;12.50;96.20;;;;;;5037637;28;20176;-72
2021/05/12 02:02:46;;;;;;;5.40;0.88;;;12.40;97.50;;;;;;5037627;28;20037;-72
2021/05/12 02:05:12;;;;;;;5.18;0.90;;;12.30;98.00;;;;;;5037156;28;20417;-72
2021/05/12 02:07:37;;;;;;;8.32;1.27;;;12.30;98.00;;;;;;5037456;28;20021;-72
2021/05/12 02:10:04;;;;;;;20.90;1.25;;;12.20;98.00;;;;;;5037424;28;20072;-72
2021/05/12 02:12:30;;;;;;;18.80;1.17;;;12.10;98.00;;;;;;5037097;28;20075;-72
2021/05/12 02:14:55;;;;;;;52.40;2.15;;;11.90;98.00;;;;;;5037322;28;20096;-72
2021/05/12 02:17:21;;;;;;;10.68;0.63;;;11.80;98.00;;;;;;5037352;28;20329;-72
2021/05/12 02:19:48;;;;;;;10.10;0.65;;;11.70;98.00;;;;;;5037333;28;20022;-71
2021/05/12 02:22:14;;;;;;;4.18;0.20;;;11.70;98.00;;;;;;5037318;28;20025;-72
2021/05/12 02:24:40;;;;;;;0.52;0.20;;;11.60;98.00;;;;;;5036882;28;20032;-71
2021/05/12 02:27:06;;;;;;;6.53;0.20;;;11.60;98.00;;;;;;5036652;28;20060;-71
2021/05/12 02:29:31;;;;;;;3.17;0.10;;;11.50;98.00;;;;;;5036822;28;20021;-71
2021/05/12 02:31:58;;;;;;;1.70;0.20;;;11.40;98.00;;;;;;5037192;28;20021;-71
2021/05/12 02:34:23;;;;;;;3.03;0.20;;;11.40;98.00;;;;;;5036722;28;20025;-71
2021/05/12 02:36:49;;;;;;;1.42;0.30;;;11.50;98.00;;;;;;5037090;28;20112;-72
2021/05/12 02:39:15;;;;;;;0.88;0.25;;;11.50;98.00;;;;;;5036991;28;20032;-72
2021/05/12 02:41:40;;;;;;;2.30;0.20;;;11.50;98.00;;;;;;5037030;28;20364;-72
2021/05/12 02:44:06;;;;;;;1.40;0.30;;;11.50;98.00;;;;;;5036646;28;20314;-71
2021/05/12 02:46:32;;;;;;;3.17;0.32;;;11.50;98.00;;;;;;5036945;28;20029;-72
2021/05/12 02:48:57;;;;;;;3.38;0.35;;;11.50;98.00;;;;;;5036878;28;20022;-71
2021/05/12 02:51:23;;;;;;;0.50;0.20;;;11.50;98.00;;;;;;5036107;28;20367;-71
2021/05/12 02:53:49;;;;;;;1.70;0.40;;;11.40;98.00;;;;;;5036811;28;20025;-71
2021/05/12 02:56:15;;;;;;;1.65;0.20;;;11.40;98.00;;;;;;5037033;28;20040;-71
2021/05/12 02:58:40;;;;;;;4.90;0.20;;;11.30;98.00;;;;;;5036514;28;20042;-71
2021/05/12 03:01:06;;;;;;;0.57;0.22;;;11.30;98.00;;;;;;5036805;28;20025;-71
2021/05/12 03:03:32;;;;;;;0.82;0.50;;;11.30;98.00;;;;;;5036807;28;20430;-71
2021/05/12 03:05:57;;;;;;;0.20;0.10;;;11.30;98.00;;;;;;5036672;28;20033;-71
2021/05/12 03:08:23;;;;;;;2.90;0.28;;;11.30;98.00;;;;;;5036330;28;20025;-71
2021/05/12 03:10:49;;;;;;;1.75;0.20;;;11.30;98.00;;;;;;5036759;28;20022;-71
2021/05/12 03:13:14;;;;;;;0.90;0.10;;;11.30;98.00;;;;;;5036452;28;20029;-71
2021/05/12 03:15:40;;;;;;;6.85;0.20;;;11.30;98.00;;;;;;5036361;28;20108;-72
2021/05/12 03:18:07;;;;;;;0.43;0.13;;;11.30;98.00;;;;;;5036389;28;20025;-72
2021/05/12 03:20:33;;;;;;;1.55;0.10;;;11.30;98.00;;;;;;5036289;28;20030;-72
2021/05/12 03:23:00;;;;;;;1.70;0.25;;;11.20;98.00;;;;;;5036345;28;20032;-72
2021/05/12 03:25:26;;;;;;;1.05;0.13;;;11.20;98.00;;;;;;5035974;28;20103;-72
2021/05/12 03:27:52;;;;;;;0.30;0.17;;;11.20;98.00;;;;;;5036215;28;20446;-72
2021/05/12 03:30:27;;;;;;;4.00;0.20;;;11.20;98.00;;;;;;5036219;28;20022;-72
2021/05/12 03:32:53;;;;;;;4.30;0.20;;;11.20;98.00;;;;;;5036585;28;20028;-72
2021/05/12 03:35:19;;;;;;;0.20;0.10;;;11.20;98.00;;;;;;5036423;28;20022;-72
2021/05/12 03:37:45;;;;;;;3.22;0.20;;;11.30;98.00;;;;;;5036461;28;20156;-72
2021/05/12 03:40:12;;;;;;;0.45;0.10;;;11.20;98.00;;;;;;5036461;28;20029;-72
2021/05/12 03:42:38;;;;;;;2.78;0.50;;;11.30;98.00;;;;;;5036453;28;20325;-72
2021/05/12 03:45:05;;;;;;;1.23;0.20;;;11.30;97.80;;;;;;5036060;28;20026;-72
2021/05/12 03:47:31;;;;;;;7.97;0.30;;;11.30;97.90;;;;;;5036306;28;20030;-72
2021/05/12 03:49:57;;;;;;;0.10;0.10;;;11.20;97.80;;;;;;5036121;28;20025;-72
2021/05/12 03:52:22;;;;;;;2.88;0.15;;;11.20;97.60;;;;;;5036393;28;20029;-72
2021/05/12 03:54:50;;;;;;;3.70;0.20;;;11.30;97.00;;;;;;5036294;28;20049;-72
2021/05/12 03:57:17;;;;;;;2.92;0.20;;;11.20;97.30;;;;;;5036029;28;20044;-72
2021/05/12 03:59:42;;;;;;;0.20;0.10;;;11.20;97.30;;;;;;5036248;28;20295;-72
2021/05/12 04:02:08;;;;;;;0.20;0.10;;;11.10;97.10;;;;;;5036025;28;20033;-72
2021/05/12 04:04:34;;;;;;;2.55;0.10;;;11.20;96.00;;;;;;5039304;28;20025;-72
2021/05/12 04:07:00;;;;;;;0.82;0.22;;;11.30;95.00;;;;;;5039704;28;20155;-72
2021/05/12 04:09:25;;;;;;;0.17;0.10;;;11.30;95.30;;;;;;5039752;28;20022;-71
2021/05/12 04:11:51;;;;;;;9.38;0.30;;;11.30;95.50;;;;;;5039708;28;20421;-72
2021/05/12 04:14:17;;;;;;;6.35;0.20;;;11.30;96.70;;;;;;5039259;28;20033;-72
2021/05/12 04:16:43;;;;;;;0.95;0.20;;;11.20;97.70;;;;;;5039618;28;20091;-72
2021/05/12 04:19:08;;;;;;;5.22;0.20;;;11.20;97.50;;;;;;5039560;28;20464;-72
2021/05/12 04:21:34;;;;;;;7.70;0.20;;;11.20;98.00;;;;;;5039531;28;20033;-72
2021/05/12 04:24:00;;;;;;;2.30;0.20;;;11.10;98.00;;;;;;5039419;28;20032;-72
2021/05/12 04:26:26;;;;;;;18.20;0.47;;;11.20;98.00;;;;;;5039056;28;20429;-72
2021/05/12 04:28:51;;;;;;;1.02;0.20;;;11.20;98.00;;;;;;5039312;28;20038;-71
2021/05/12 04:31:17;;;;;;;0.30;0.20;;;11.30;98.00;;;;;;5039278;28;20021;-72
2021/05/12 04:33:43;;;;;;;153.43;3.92;;;11.20;98.00;;;;;;5039238;28;20112;-72
2021/05/12 04:36:09;;;;;;;64.35;2.05;;;11.10;98.00;;;;;;5038897;28;20033;-72
2021/05/12 04:38:34;;;;;;;4.95;0.20;;;11.00;98.00;;;;;;5038876;28;20033;-72
2021/05/12 04:41:00;;;;;;;1.00;0.20;;;11.10;98.00;;;;;;5039173;28;20040;-72
2021/05/12 04:43:26;;;;;;;12.07;0.45;;;11.10;98.00;;;;;;5038851;28;20112;-72
2021/05/12 04:45:53;;;;;;;1.20;0.20;;;11.10;98.00;;;;;;5038980;28;20033;-72
2021/05/12 04:48:18;;;;;;;1.88;0.20;;;11.10;98.00;;;;;;5038923;28;20414;-72
2021/05/12 04:50:44;;;;;;;0.55;0.13;;;11.30;98.00;;;;;;5038960;28;20028;-72
2021/05/12 04:53:10;;;;;;;0.13;0.10;;;11.30;98.00;;;;;;5038959;28;20322;-72
2021/05/12 04:55:36;;;;;;;0.65;0.20;;;11.30;98.00;;;;;;5038601;28;20439;-72
2021/05/12 04:58:01;;;;;;;62.97;2.10;;;11.30;98.00;;;;;;5038826;28;20108;-72
2021/05/12 05:00:27;;;;;;;12.30;0.43;;;11.20;98.00;;;;;;5038449;28;20345;-72
2021/05/12 05:02:54;;;;;;;4.53;0.30;;;11.20;98.00;;;;;;5038778;28;20057;-72
2021/05/12 05:05:21;;;;;;;2.45;0.20;;;11.30;98.00;;;;;;5038597;28;20418;-72
2021/05/12 05:07:47;;;;;;;8.75;0.60;;;11.40;98.00;;;;;;5038558;28;20116;-72
2021/05/12 05:10:14;;;;;;;2.83;0.10;;;11.50;98.00;;;;;;5038268;28;20041;-72
2021/05/12 05:12:40;;;;;;;0.63;0.20;;;11.50;98.00;;;;;;5038305;28;20064;-72
2021/05/12 05:15:07;;;;;;;1.38;0.10;;;11.50;98.00;;;;;;5037689;28;20025;-72
2021/05/12 05:17:33;;;;;;;0.73;0.20;;;11.50;98.00;;;;;;5038105;28;20067;-72
2021/05/12 05:20:00;;;;;;;0.17;0.10;;;11.50;98.00;;;;;;5038122;28;20022;-72
2021/05/12 05:22:28;;;;;;;0.28;0.10;;;11.50;98.00;;;;;;5038357;28;20079;-72
2021/05/12 05:24:55;;;;;;;0.80;0.13;;;11.50;98.00;;;;;;5037989;28;20034;-72
2021/05/12 05:27:21;;;;;;;2.17;0.20;;;11.50;98.00;;;;;;5037754;28;20050;-71
2021/05/12 05:29:46;;;;;;;1.02;0.25;;;11.50;98.00;;;;;;5038190;28;20056;-72
2021/05/12 05:32:12;;;;;;;91.78;3.42;;;11.50;98.00;;;;;;5038146;28;20425;-72
2021/05/12 05:34:39;;;;;;;2.15;0.30;;;11.40;98.00;;;;;;5038152;28;20294;-72
2021/05/12 05:37:05;;;;;;;50.28;1.83;;;11.40;98.00;;;;;;5037777;28;20317;-72
2021/05/12 05:39:35;;;;;;;10.80;0.60;;;11.50;98.00;;;;;;5038019;28;20030;-72
2021/05/12 05:42:06;;;;;;;1.38;0.30;;;11.50;98.00;;;;;;5037737;28;20033;-72
2021/05/12 05:44:32;;;;;;;0.65;0.50;;;11.60;98.00;;;;;;5037894;28;20033;-72
2021/05/12 05:46:57;;;;;;;0.82;0.38;;;11.50;98.00;;;;;;5037813;28;20021;-72
2021/05/12 05:49:23;;;;;;;1.00;0.40;;;11.50;98.00;;;;;;5037571;28;20040;-72
2021/05/12 05:51:49;;;;;;;1.55;0.20;;;11.50;98.00;;;;;;5037856;28;20032;-72
2021/05/12 05:54:15;;;;;;;0.45;0.25;;;11.40;98.00;;;;;;5037302;28;20021;-72
2021/05/12 05:56:41;;;;;;;0.40;0.30;;;11.50;98.00;;;;;;5037423;28;20036;-72
2021/05/12 05:59:07;;;;;;;0.70;0.30;;;11.50;98.00;;;;;;5037710;28;20060;-72
2021/05/12 06:01:32;;;;;;;0.47;0.30;;;11.50;98.00;;;;;;5037379;28;20325;-72
2021/05/12 06:03:58;;;;;;;0.85;0.20;;;11.40;98.00;;;;;;5037524;28;20029;-71
2021/05/12 06:06:23;;;;;;;0.60;0.30;;;11.40;98.00;;;;;;5037204;28;20087;-72
2021/05/12 06:08:49;;;;;;;0.38;0.30;;;11.50;98.00;;;;;;5037138;28;20061;-72
2021/05/12 06:11:15;;;;;;;0.25;0.20;;;11.40;98.00;;;;;;5037134;28;20025;-72
2021/05/12 06:13:41;;;;;;;0.40;0.20;;;11.30;98.00;;;;;;5037094;28;20032;-72
2021/05/12 06:16:06;;;;;;;1.55;0.30;;;11.40;98.00;;;;;;5037367;28;20051;-72
2021/05/12 06:18:32;;;;;;;0.40;0.20;;;11.40;98.00;;;;;;5037059;28;20034;-71
2021/05/12 06:20:58;;;;;;;0.82;0.20;;;11.40;98.00;;;;;;5037341;28;20041;-72
2021/05/12 06:23:24;;;;;;;0.57;0.30;;;11.40;98.00;;;;;;5037334;28;20418;-72
2021/05/12 06:25:52;;;;;;;0.80;0.40;;;11.40;98.00;;;;;;5036214;28;20053;-72
2021/05/12 06:28:19;;;;;;;0.35;0.20;;;11.40;98.00;;;;;;5036817;28;20029;-72
2021/05/12 06:30:50;;;;;;;0.40;0.20;;;11.40;98.00;;;;;;5036862;28;20029;-72
2021/05/12 06:33:17;;;;;;;161.07;5.82;;;11.40;98.00;;;;;;5037164;28;20046;-72
2021/05/12 06:35:43;;;;;;;1.90;0.30;;;11.30;98.00;;;;;;5037034;28;20100;-72
2021/05/12 06:38:09;;;;;;;1.50;0.45;;;11.20;98.00;;;;;;5037107;28;20045;-72
2021/05/12 06:40:37;;;;;;;2.20;0.20;;;11.20;98.00;;;;;;5036695;28;20060;-72
2021/05/12 06:43:03;;;;;;;0.57;0.22;;;11.30;98.00;;;;;;5037037;28;20026;-72
2021/05/12 06:45:29;;;;;;;0.68;0.30;;;11.40;98.00;;;;;;5036950;28;20036;-72
2021/05/12 06:47:55;;;;;;;0.30;0.20;;;11.40;98.00;;;;;;5036536;28;20033;-72
2021/05/12 06:50:25;;;;;;;0.77;0.40;;;11.40;98.00;;;;;;5036620;28;20075;-71
2021/05/12 06:52:54;;;;;;;2.85;0.30;;;11.30;98.00;;;;;;5036618;28;20029;-72
2021/05/12 06:55:21;;;;;;;0.50;0.20;;;11.20;96.80;;;;;;5036690;28;20054;-72
2021/05/12 06:57:46;;;;;;;2.38;0.28;;;11.10;98.00;;;;;;5036709;28;20091;-72
2021/05/12 07:00:13;;;;;;;2.72;0.30;;;11.10;98.00;;;;;;5036793;28;20402;-72
2021/05/12 07:02:39;;;;;;;0.20;0.20;;;11.10;98.00;;;;;;5036483;28;20048;-72
2021/05/12 07:05:05;;;;;;;1.58;0.40;;;11.10;98.00;;;;;;5036759;28;20056;-71
2021/05/12 07:07:30;;;;;;;0.63;0.20;;;11.00;94.00;;;;;;5036347;28;20487;-71
2021/05/12 07:09:56;;;;;;;0.10;0.10;;;11.00;97.30;;;;;;5036740;28;20026;-72
2021/05/12 07:12:22;;;;;;;0.85;0.20;;;11.00;92.40;;;;;;5036426;28;20033;-72
2021/05/12 07:14:47;;;;;;;1.08;0.10;;;10.90;95.90;;;;;;5036657;28;20036;-72
2021/05/12 07:17:13;;;;;;;0.17;0.10;;;10.90;93.70;;;;;;5036364;28;20057;-72
2021/05/12 07:19:39;;;;;;;0.50;0.20;;;10.80;96.10;;;;;;5036383;28;20029;-72
2021/05/12 07:22:05;;;;;;;5.78;0.32;;;10.80;97.90;;;;;;5036328;28;20028;-71
2021/05/12 07:24:30;;;;;;;1.02;0.32;;;10.80;98.00;;;;;;5036513;28;20052;-72
2021/05/12 07:26:56;;;;;;;0.77;0.30;;;10.80;98.00;;;;;;5036280;28;20037;-72
2021/05/12 07:29:22;;;;;;;3.13;0.25;;;10.90;98.00;;;;;;5036477;28;20298;-72
2021/05/12 07:31:47;;;;;;;1.40;0.55;;;10.90;98.00;;;;;;5036635;28;20030;-72
2021/05/12 07:34:13;;;;;;;1.42;0.30;;;10.90;98.00;;;;;;5036223;28;20049;-72
2021/05/12 07:36:39;;;;;;;2.58;0.38;;;10.90;98.00;;;;;;5036858;28;20029;-72
2021/05/12 07:39:08;;;;;;;0.80;0.40;;;11.00;98.00;;;;;;5040337;28;20056;-72
2021/05/12 07:41:35;;;;;;;0.57;0.22;;;11.10;98.00;;;;;;5039996;28;20029;-72
2021/05/12 07:44:03;;;;;;;0.80;0.25;;;11.00;98.00;;;;;;5040184;28;20040;-71
2021/05/12 07:46:29;;;;;;;2.65;0.38;;;11.10;98.00;;;;;;5039903;28;20104;-72
2021/05/12 07:48:54;;;;;;;1.20;0.30;;;11.20;98.00;;;;;;5040096;28;20317;-72
2021/05/12 07:51:21;;;;;;;0.30;0.20;;;11.30;98.00;;;;;;5039782;28;20022;-72
2021/05/12 07:53:47;;;;;;;1.50;0.20;;;11.30;98.00;;;;;;5039735;28;20428;-72
2021/05/12 07:56:12;;;;;;;0.50;0.20;;;11.20;98.00;;;;;;5040184;28;20029;-72
2021/05/12 07:58:38;;;;;;;5.65;0.50;;;11.20;98.00;;;;;;5039662;28;20437;-72
2021/05/12 08:01:16;;;;;;;1.40;0.70;;;11.20;98.00;;;;;;5039899;28;20036;-72
2021/05/12 08:03:42;;;;;;;0.10;0.10;;;11.30;98.00;;;;;;5039562;28;20479;-72
2021/05/12 08:06:08;;;;;;;0.47;0.20;;;11.40;98.00;;;;;;5039797;28;20025;-72
2021/05/12 08:08:34;;;;;;;0.20;0.10;;;11.40;97.40;;;;;;5039677;28;20108;-72
2021/05/12 08:10:59;;;;;;;0.85;0.20;;;11.40;97.00;;;;;;5039422;28;20022;-72
2021/05/12 08:13:25;;;;;;;0.20;0.10;;;11.50;97.80;;;;;;5039707;28;20060;-72
2021/05/12 08:15:51;;;;;;;0.65;0.28;;;11.70;98.00;;;;;;5039241;28;20325;-72
2021/05/12 08:18:17;;;;;;;0.30;0.20;;;11.80;98.00;;;;;;5039314;28;20040;-72
2021/05/12 08:20:43;;;;;;;0.40;0.20;;;11.90;98.00;;;;;;5039267;28;20100;-72
2021/05/12 08:23:08;;;;;;;0.22;0.10;;;11.90;97.70;;;;;;5039584;28;20025;-72
2021/05/12 08:25:34;;;;;;;0.60;0.20;;;11.90;97.40;;;;;;5039180;28;20052;-72
2021/05/12 08:28:00;;;;;;;1.88;0.10;;;11.90;97.10;;;;;;5039389;28;20080;-71
2021/05/12 08:30:27;;;;;;;0.63;0.10;;;11.90;96.60;;;;;;5039313;28;20049;-72
2021/05/12 08:32:56;;;;;;;0.38;0.20;;;11.90;97.20;;;;;;5039075;28;20026;-72
2021/05/12 08:35:22;;;;;;;0.50;0.20;;;12.00;97.30;;;;;;5039191;28;20096;-72
2021/05/12 08:37:51;;;;;;;0.13;0.08;;;12.10;94.30;;;;;;5039251;28;20108;-72
2021/05/12 08:40:19;;;;;;;0.63;0.10;;;12.20;92.50;;;;;;5038888;28;20053;-72
2021/05/12 08:42:46;;;;;;;0.25;0.20;;;12.20;94.40;;;;;;5039143;28;20105;-72
2021/05/12 08:45:13;;;;;;;0.40;0.20;;;12.30;96.60;;;;;;5039021;28;20034;-72
2021/05/12 08:47:44;;;;;;;0.30;0.20;;;12.40;94.40;;;;;;5038962;28;20337;-72
2021/05/12 08:50:11;;;;;;;1.48;0.50;;;12.40;95.20;;;;;;5038424;28;20021;-72
2021/05/12 08:52:37;;;;;;;1.45;0.35;;;12.50;95.30;;;;;;5039053;28;20025;-72
2021/05/12 08:55:04;;;;;;;1.05;0.40;;;12.60;96.20;;;;;;5038441;28;20410;-72
2021/05/12 08:57:30;;;;;;;0.10;0.10;;;12.80;96.10;;;;;;5038593;28;20464;-72
2021/05/12 08:59:55;;;;;;;0.13;0.10;;;13.00;94.70;;;;;;5038811;28;20021;-72
2021/05/12 09:02:21;;;;;;;0.98;0.30;;;13.10;95.60;;;;;;5038762;28;20042;-72
2021/05/12 09:04:48;;;;;;;0.80;0.40;;;13.50;94.70;;;;;;5038699;28;20318;-72
2021/05/12 09:07:14;;;;;;;0.82;0.50;;;14.00;92.40;;;;;;5038609;28;20034;-72
2021/05/12 09:09:40;;;;;;;0.60;0.40;;;14.40;90.10;;;;;;5038636;28;20017;-72
2021/05/12 09:12:06;;;;;;;0.60;0.30;;;15.00;84.60;;;;;;5038633;28;20101;-72
2021/05/12 09:14:35;;;;;;;0.30;0.20;;;15.60;82.70;;;;;;5038177;28;20060;-72
2021/05/12 09:17:02;;;;;;;2.00;0.30;;;16.50;87.60;;;;;;5038546;28;20029;-72
2021/05/12 09:19:28;;;;;;;0.10;0.10;;;17.20;88.20;;;;;;5038150;28;20025;-72
2021/05/12 09:22:00;;;;;;;0.85;0.20;;;17.40;81.00;;;;;;5038145;28;20034;-72
2021/05/12 09:24:37;;;;;;;0.20;0.10;;;17.30;79.30;;;;;;5037995;28;20030;-72
2021/05/12 09:27:05;;;;;;;0.10;0.10;;;17.00;84.10;;;;;;5037789;28;20061;-72
2021/05/12 09:29:40;;;;;;;0.75;0.10;;;16.60;84.50;;;;;;5038286;28;20218;-72
2021/05/12 09:32:14;;;;;;;0.55;0.20;;;16.10;84.60;;;;;;5038244;28;20082;-72
2021/05/12 09:35:02;;;;;;;0.25;0.10;;;15.90;87.20;;;;;;5038139;28;20030;-72
2021/05/12 09:37:35;;;;;;;0.52;0.20;;;15.60;87.40;;;;;;5038088;28;20048;-72
2021/05/12 09:40:11;;;;;;;1.58;0.85;;;15.30;90.30;;;;;;5037722;28;20026;-72
2021/05/12 09:42:39;;;;;;;0.60;0.10;;;15.10;91.10;;;;;;5037735;28;20026;-72
2021/05/12 09:45:19;;;;;;;0.25;0.10;;;14.90;88.30;;;;;;5037574;28;20029;-72
2021/05/12 09:47:50;;;;;;;0.43;0.30;;;14.70;91.80;;;;;;5037552;28;20037;-72
2021/05/12 09:50:22;;;;;;;0.73;0.28;;;14.50;86.70;;;;;;5037726;28;20018;-72
2021/05/12 09:52:56;;;;;;;1.63;0.40;;;14.50;90.60;;;;;;5037578;28;20026;-72
2021/05/12 09:55:36;;;;;;;0.20;0.15;;;14.30;92.30;;;;;;5037802;28;20282;-72
2021/05/12 09:58:08;;;;;;;0.98;0.47;;;14.10;92.90;;;;;;5037747;28;20075;-72
2021/05/12 10:00:42;;;;;;;0.88;0.25;;;14.00;92.80;;;;;;5037571;28;20039;-72
2021/05/12 10:03:10;;;;;;;0.80;0.20;;;14.00;89.90;;;;;;5037694;28;20099;-71
2021/05/12 10:06:02;;;;;;;0.20;0.20;;;13.90;90.80;;;;;;5037190;28;20052;-72
2021/05/12 10:08:36;;;;;;;2.63;0.22;;;13.90;90.50;;;;;;5037432;28;20309;-72
2021/05/12 10:11:06;;;;;;;0.55;0.25;;;13.90;92.40;;;;;;5037478;28;20071;-72
2021/05/12 10:13:34;;;;;;;0.77;0.52;;;13.90;91.50;;;;;;5037223;28;20033;-72
2021/05/12 10:16:04;;;;;;;1.20;0.40;;;13.90;93.10;;;;;;5031740;28;20028;-72
2021/05/12 10:18:30;;;;;;;1.33;0.30;;;13.80;93.00;;;;;;5028549;28;20030;-72
2021/05/12 10:20:57;;;;;;;0.93;0.30;;;13.80;93.40;;;;;;5036995;28;20029;-72
2021/05/12 10:23:24;;;;;;;1.48;0.30;;;13.90;94.60;;;;;;5037030;28;20048;-72
2021/05/12 10:25:50;;;;;;;0.38;0.20;;;13.90;89.90;;;;;;5036809;28;20056;-72
2021/05/12 10:28:16;;;;;;;0.60;0.30;;;13.80;89.80;;;;;;5037156;28;20385;-71
2021/05/12 10:30:46;;;;;;;0.47;0.30;;;13.70;89.80;;;;;;5037153;28;20105;-72
2021/05/12 10:33:12;;;;;;;0.57;0.30;;;13.80;90.80;;;;;;5036818;28;20388;-71
2021/05/12 10:35:40;;;;;;;2.85;0.20;;;13.80;90.00;;;;;;5036752;28;20026;-72
2021/05/12 10:38:29;;;;;;;0.90;0.30;;;13.90;91.60;;;;;;5037097;28;20033;-72
2021/05/12 10:40:55;;;;;;;0.10;0.10;;;14.10;91.30;;;;;;5036796;28;20031;-72
2021/05/12 10:43:27;;;;;;;0.40;0.30;;;14.20;92.70;;;;;;5037087;28;20108;-72
2021/05/12 10:46:06;;;;;;;0.93;0.20;;;14.30;89.60;;;;;;5036655;28;20096;-72
2021/05/12 10:48:46;;;;;;;0.32;0.20;;;14.40;90.10;;;;;;5036623;28;20060;-72
2021/05/12 10:51:22;;;;;;;0.82;0.20;;;14.40;88.20;;;;;;5036610;28;20083;-72
2021/05/12 10:53:52;;;;;;;;;;;14.50;88.30;;;;;;5037306;28;20108;-72
2021/05/12 10:56:19;;;;;;;0.50;0.20;;;14.50;91.20;;;;;;5037071;28;19928;-72
2021/05/12 10:58:57;;;;;;;1.50;0.30;;;14.60;89.90;;;;;;5036862;28;20083;-72
2021/05/12 11:01:25;;;;;;;0.52;0.28;;;14.80;93.40;;;;;;5036788;28;20108;-72
2021/05/12 11:03:50;;;;;;;0.43;0.20;;;15.10;89.70;;;;;;5036773;28;20040;-72
2021/05/12 11:06:46;;;;;;;0.28;0.20;;;15.40;89.80;;;;;;5036802;28;20318;-72
2021/05/12 11:09:18;;;;;;;1.80;0.40;;;15.60;87.90;;;;;;5036316;28;20314;-72
2021/05/12 11:11:44;;;;;;;1.40;0.35;;;15.70;84.90;;;;;;5037307;28;20053;-72
2021/05/12 11:14:31;;;;;;;0.93;0.32;;;15.60;86.70;;;;;;5040771;28;20029;-72
2021/05/12 11:17:05;;;;;;;0.50;0.40;;;15.70;86.90;;;;;;5040534;28;20056;-72
2021/05/12 11:19:37;;;;;;;1.73;0.45;;;15.80;88.40;;;;;;5040398;28;20036;-72
2021/05/12 11:33:34;;;;;;;1.17;0.40;;;15.90;86.50;;;;;;5040243;28;20040;-72
2021/05/12 11:36:08;;;;;;;2.30;0.47;;;15.90;85.10;;;;;;5040427;28;20040;-72
2021/05/12 11:38:34;;;;;;;1.35;0.30;;;15.90;88.70;;;;;;5040068;28;20079;-72
2021/05/12 11:41:12;;;;;;;0.80;0.30;;;16.30;87.00;;;;;;5040312;28;20079;-72
2021/05/12 11:43:46;;;;;;;0.65;0.32;;;16.80;86.20;;;;;;5039935;28;20095;-72
2021/05/12 11:46:41;;;;;;;1.02;0.35;;;16.70;82.20;;;;;;5040263;28;20322;-72
2021/05/12 11:49:13;;;;;;;0.75;0.30;;;16.50;83.40;;;;;;5039846;28;20472;-72
2021/05/12 11:51:49;;;;;;;0.73;0.40;;;16.30;84.10;;;;;;5040157;28;20325;-72
2021/05/12 11:54:15;;;;;;;1.92;0.40;;;16.40;86.10;;;;;;5039711;28;20049;-72
2021/05/12 11:56:46;;;;;;;1.23;0.63;;;16.50;84.00;;;;;;5040004;28;20057;-72
2021/05/12 11:59:19;;;;;;;0.82;0.47;;;16.60;85.20;;;;;;5039977;28;20029;-72
2021/05/12 12:01:45;;;;;;;2.08;0.40;;;16.50;84.30;;;;;;5039646;28;20410;-72
2021/05/12 12:04:25;;;;;;;3.00;0.40;;;16.20;86.80;;;;;;5039567;28;20033;-72
2021/05/12 12:06:51;;;;;;;1.05;0.47;;;16.00;87.50;;;;;;5039879;28;20045;-72
2021/05/12 12:09:18;;;;;;;2.63;0.50;;;15.80;87.40;;;;;;5039689;28;20441;-72
2021/05/12 12:11:45;;;;;;;0.95;0.40;;;15.70;85.90;;;;;;5039449;28;20024;-72
2021/05/12 12:14:12;;;;;;;1.90;0.32;;;15.60;89.80;;;;;;5039361;28;20025;-72
2021/05/12 12:16:40;;;;;;;0.63;0.30;;;15.40;86.60;;;;;;5039337;28;20410;-72
2021/05/12 12:19:11;;;;;;;0.98;0.20;;;15.40;87.00;;;;;;5039620;28;20112;-72
2021/05/12 12:21:39;;;;;;;0.65;0.30;;;15.40;88.70;;;;;;5039534;28;20025;-72
2021/05/12 12:24:12;;;;;;;0.70;0.40;;;15.50;85.50;;;;;;5037957;28;20034;-72
2021/05/12 12:26:41;;;;;;;0.90;0.40;;;15.70;85.70;;;;;;5039091;28;20049;-72
2021/05/12 12:29:08;;;;;;;2.15;0.32;;;15.80;85.00;;;;;;5039370;28;20084;-72
2021/05/12 12:31:45;;;;;;;0.35;0.20;;;16.10;83.20;;;;;;5039050;28;20074;-72
2021/05/12 12:34:27;;;;;;;0.30;0.20;;;16.10;83.20;;;;;;5038999;28;20025;-72
2021/05/12 12:37:03;;;;;;;0.43;0.10;;;16.20;84.30;;;;;;5038957;28;20025;-72
2021/05/12 12:39:58;;;;;;;1.85;0.20;;;16.30;83.40;;;;;;5038986;28;20038;-72
2021/05/12 12:42:34;;;;;;;0.52;0.20;;;16.50;81.50;;;;;;5038926;28;20064;-72
2021/05/12 12:45:03;;;;;;;2.63;0.20;;;16.50;81.90;;;;;;5038771;28;20037;-72
2021/05/12 12:47:29;;;;;;;0.70;0.20;;;16.40;80.90;;;;;;5039031;28;20079;-72
2021/05/12 12:50:02;;;;;;;0.22;0.20;;;16.40;82.80;;;;;;5038729;28;20021;-71
2021/05/12 12:52:31;;;;;;;0.28;0.10;;;16.50;79.30;;;;;;5038729;28;20018;-72
2021/05/12 12:55:07;;;;;;;0.25;0.13;;;16.40;81.00;;;;;;5038703;28;20433;-72
2021/05/12 12:57:38;;;;;;;0.30;0.20;;;16.30;81.30;;;;;;5038925;28;20034;-72
2021/05/12 13:00:06;;;;;;;0.20;0.10;;;16.30;80.60;;;;;;5038469;28;20448;-72
2021/05/12 13:02:31;;;;;;;0.30;0.20;;;16.10;82.10;;;;;;5038924;28;20029;-72